sensor_id;sensor_type;location;lat;lon;timestamp;temperature;humidity
4406;DHT22;2216;53.806;11.598;2023-05-10T00:01:05;12.90;47.50
4406;DHT22;2216;53.806;11.598;2023-05-10T00:03:31;12.90;47.30
4406;DHT22;2216;53.806;11.598;2023-05-10T00:05:57;12.90;47.80
4406;DHT22;2216;53.806;11.598;2023-05-10T00:08:23;12.90;47.40
4406;DHT22;2216;53.806;11.598;2023-05-10T00:10:49;12.80;47.30
4406;DHT22;2216;53.806;11.598;2023-05-10T00:13:14;12.80;47.30
4406;DHT22;2216;53.806;11.598;2023-05-10T00:15:40;12.80;47.40
4406;DHT22;2216;53.806;11.598;2023-05-10T00:18:06;12.80;47.70
4406;DHT22;2216;53.806;11.598;2023-05-10T00:20:31;12.70;47.60
4406;DHT22;2216;53.806;11.598;2023-05-10T00:22:57;12.70;47.50
4406;DHT22;2216;53.806;11.598;2023-05-10T00:25:23;12.70;47.60
4406;DHT22;2216;53.806;11.598;2023-05-10T00:27:48;12.70;47.90
4406;DHT22;2216;53.806;11.598;2023-05-10T00:30:15;12.60;47.60
4406;DHT22;2216;53.806;11.598;2023-05-10T00:32:40;12.60;47.60
4406;DHT22;2216;53.806;11.598;2023-05-10T00:35:06;12.60;47.80
4406;DHT22;2216;53.806;11.598;2023-05-10T00:37:33;12.60;48.00
4406;DHT22;2216;53.806;11.598;2023-05-10T00:39:58;12.60;48.10
4406;DHT22;2216;53.806;11.598;2023-05-10T00:42:24;12.50;48.10
4406;DHT22;2216;53.806;11.598;2023-05-10T00:44:50;12.50;47.90
4406;DHT22;2216;53.806;11.598;2023-05-10T00:47:16;12.50;48.00
4406;DHT22;2216;53.806;11.598;2023-05-10T00:49:42;12.50;48.10
4406;DHT22;2216;53.806;11.598;2023-05-10T00:52:09;12.40;47.80
4406;DHT22;2216;53.806;11.598;2023-05-10T00:54:35;12.40;47.80
4406;DHT22;2216;53.806;11.598;2023-05-10T00:57:01;12.40;47.80
4406;DHT22;2216;53.806;11.598;2023-05-10T00:59:28;12.30;47.80
4406;DHT22;2216;53.806;11.598;2023-05-10T01:01:54;12.30;48.00
4406;DHT22;2216;53.806;11.598;2023-05-10T01:04:20;12.30;48.10
4406;DHT22;2216;53.806;11.598;2023-05-10T01:06:51;12.30;47.90
4406;DHT22;2216;53.806;11.598;2023-05-10T01:09:18;12.20;48.00
4406;DHT22;2216;53.806;11.598;2023-05-10T01:11:44;12.20;48.10
4406;DHT22;2216;53.806;11.598;2023-05-10T01:14:10;12.20;48.10
4406;DHT22;2216;53.806;11.598;2023-05-10T01:16:38;12.20;48.00
4406;DHT22;2216;53.806;11.598;2023-05-10T01:19:25;12.20;48.20
4406;DHT22;2216;53.806;11.598;2023-05-10T01:22:24;12.20;48.30
4406;DHT22;2216;53.806;11.598;2023-05-10T01:28:28;12.10;48.00
4406;DHT22;2216;53.806;11.598;2023-05-10T01:31:51;12.10;48.50
4406;DHT22;2216;53.806;11.598;2023-05-10T01:34:27;12.10;48.20
4406;DHT22;2216;53.806;11.598;2023-05-10T01:37:02;12.00;48.30
4406;DHT22;2216;53.806;11.598;2023-05-10T01:39:45;12.00;48.20
4406;DHT22;2216;53.806;11.598;2023-05-10T01:42:50;12.00;48.40
4406;DHT22;2216;53.806;11.598;2023-05-10T01:45:31;12.00;48.90
4406;DHT22;2216;53.806;11.598;2023-05-10T01:48:11;11.90;48.80
4406;DHT22;2216;53.806;11.598;2023-05-10T01:50:42;12.00;48.90
4406;DHT22;2216;53.806;11.598;2023-05-10T01:53:10;11.90;49.00
4406;DHT22;2216;53.806;11.598;2023-05-10T01:55:45;11.90;49.00
4406;DHT22;2216;53.806;11.598;2023-05-10T01:58:15;11.90;48.70
4406;DHT22;2216;53.806;11.598;2023-05-10T02:00:46;11.90;48.50
4406;DHT22;2216;53.806;11.598;2023-05-10T02:03:13;11.90;48.60
4406;DHT22;2216;53.806;11.598;2023-05-10T02:05:41;11.80;49.10
4406;DHT22;2216;53.806;11.598;2023-05-10T02:08:11;11.80;48.90
4406;DHT22;2216;53.806;11.598;2023-05-10T02:10:37;11.80;49.30
4406;DHT22;2216;53.806;11.598;2023-05-10T02:13:05;11.80;49.00
4406;DHT22;2216;53.806;11.598;2023-05-10T02:15:32;11.80;49.00
4406;DHT22;2216;53.806;11.598;2023-05-10T02:17:59;11.80;49.10
4406;DHT22;2216;53.806;11.598;2023-05-10T02:20:26;11.80;49.40
4406;DHT22;2216;53.806;11.598;2023-05-10T02:22:54;11.70;48.90
4406;DHT22;2216;53.806;11.598;2023-05-10T02:25:23;11.70;49.00
4406;DHT22;2216;53.806;11.598;2023-05-10T02:27:50;11.70;49.10
4406;DHT22;2216;53.806;11.598;2023-05-10T02:30:18;11.70;49.00
4406;DHT22;2216;53.806;11.598;2023-05-10T02:32:44;11.70;49.00
4406;DHT22;2216;53.806;11.598;2023-05-10T02:35:11;11.70;49.10
4406;DHT22;2216;53.806;11.598;2023-05-10T02:37:38;11.60;49.10
4406;DHT22;2216;53.806;11.598;2023-05-10T02:40:06;11.60;49.80
4406;DHT22;2216;53.806;11.598;2023-05-10T02:42:36;11.70;49.20
4406;DHT22;2216;53.806;11.598;2023-05-10T02:45:07;11.60;49.40
4406;DHT22;2216;53.806;11.598;2023-05-10T02:47:36;11.60;49.20
4406;DHT22;2216;53.806;11.598;2023-05-10T02:50:02;11.60;49.40
4406;DHT22;2216;53.806;11.598;2023-05-10T02:52:34;11.50;49.50
4406;DHT22;2216;53.806;11.598;2023-05-10T02:55:05;11.60;49.70
4406;DHT22;2216;53.806;11.598;2023-05-10T02:57:37;11.60;49.90
4406;DHT22;2216;53.806;11.598;2023-05-10T03:00:06;11.60;49.60
4406;DHT22;2216;53.806;11.598;2023-05-10T03:02:32;11.60;49.60
4406;DHT22;2216;53.806;11.598;2023-05-10T03:04:58;11.60;50.40
4406;DHT22;2216;53.806;11.598;2023-05-10T03:07:24;11.50;49.90
4406;DHT22;2216;53.806;11.598;2023-05-10T03:09:50;11.50;50.00
4406;DHT22;2216;53.806;11.598;2023-05-10T03:12:33;11.50;49.90
4406;DHT22;2216;53.806;11.598;2023-05-10T03:15:37;11.50;49.70
4406;DHT22;2216;53.806;11.598;2023-05-10T03:18:18;11.50;49.70
4406;DHT22;2216;53.806;11.598;2023-05-10T03:20:49;11.50;49.80
4406;DHT22;2216;53.806;11.598;2023-05-10T03:26:01;11.50;49.90
4406;DHT22;2216;53.806;11.598;2023-05-10T03:28:27;11.50;49.90
4406;DHT22;2216;53.806;11.598;2023-05-10T03:30:56;11.40;49.80
4406;DHT22;2216;53.806;11.598;2023-05-10T03:33:22;11.40;49.80
4406;DHT22;2216;53.806;11.598;2023-05-10T03:35:48;11.40;50.20
4406;DHT22;2216;53.806;11.598;2023-05-10T03:38:14;11.40;50.20
4406;DHT22;2216;53.806;11.598;2023-05-10T03:40:40;11.40;50.00
4406;DHT22;2216;53.806;11.598;2023-05-10T03:43:05;11.40;50.10
4406;DHT22;2216;53.806;11.598;2023-05-10T03:45:31;11.40;50.00
4406;DHT22;2216;53.806;11.598;2023-05-10T03:47:57;11.40;50.20
4406;DHT22;2216;53.806;11.598;2023-05-10T03:50:24;11.40;50.60
4406;DHT22;2216;53.806;11.598;2023-05-10T03:52:49;11.40;50.40
4406;DHT22;2216;53.806;11.598;2023-05-10T03:55:15;11.50;50.60
4406;DHT22;2216;53.806;11.598;2023-05-10T03:57:42;11.50;51.00
4406;DHT22;2216;53.806;11.598;2023-05-10T04:00:08;11.50;51.10
4406;DHT22;2216;53.806;11.598;2023-05-10T04:02:34;11.60;51.00
4406;DHT22;2216;53.806;11.598;2023-05-10T04:05:00;11.60;51.10
4406;DHT22;2216;53.806;11.598;2023-05-10T04:07:26;11.70;51.50
4406;DHT22;2216;53.806;11.598;2023-05-10T04:09:52;11.80;52.10
4406;DHT22;2216;53.806;11.598;2023-05-10T04:12:18;11.90;51.30
4406;DHT22;2216;53.806;11.598;2023-05-10T04:14:43;11.90;51.40
4406;DHT22;2216;53.806;11.598;2023-05-10T04:17:09;12.10;51.30
4406;DHT22;2216;53.806;11.598;2023-05-10T04:19:35;12.00;51.10
4406;DHT22;2216;53.806;11.598;2023-05-10T04:22:02;12.10;51.60
4406;DHT22;2216;53.806;11.598;2023-05-10T04:24:28;12.20;51.30
4406;DHT22;2216;53.806;11.598;2023-05-10T04:26:54;12.20;51.00
4406;DHT22;2216;53.806;11.598;2023-05-10T04:29:20;12.30;51.00
4406;DHT22;2216;53.806;11.598;2023-05-10T04:31:46;12.30;51.40
4406;DHT22;2216;53.806;11.598;2023-05-10T04:34:12;12.40;51.20
4406;DHT22;2216;53.806;11.598;2023-05-10T04:36:37;12.40;51.30
4406;DHT22;2216;53.806;11.598;2023-05-10T04:39:04;12.50;51.50
4406;DHT22;2216;53.806;11.598;2023-05-10T04:41:29;12.50;51.40
4406;DHT22;2216;53.806;11.598;2023-05-10T04:43:55;12.60;51.60
4406;DHT22;2216;53.806;11.598;2023-05-10T04:46:21;12.70;51.80
4406;DHT22;2216;53.806;11.598;2023-05-10T04:48:47;12.70;51.70
4406;DHT22;2216;53.806;11.598;2023-05-10T04:51:12;12.80;51.60
4406;DHT22;2216;53.806;11.598;2023-05-10T04:53:38;12.80;51.80
4406;DHT22;2216;53.806;11.598;2023-05-10T04:56:04;12.90;51.70
4406;DHT22;2216;53.806;11.598;2023-05-10T04:58:30;13.00;52.00
4406;DHT22;2216;53.806;11.598;2023-05-10T05:00:56;13.00;51.70
4406;DHT22;2216;53.806;11.598;2023-05-10T05:03:21;13.00;51.80
4406;DHT22;2216;53.806;11.598;2023-05-10T05:05:47;13.10;52.10
4406;DHT22;2216;53.806;11.598;2023-05-10T05:08:13;13.10;51.80
4406;DHT22;2216;53.806;11.598;2023-05-10T05:10:39;13.20;51.90
4406;DHT22;2216;53.806;11.598;2023-05-10T05:13:05;13.20;51.90
4406;DHT22;2216;53.806;11.598;2023-05-10T05:15:31;13.30;51.90
4406;DHT22;2216;53.806;11.598;2023-05-10T05:17:57;13.30;51.80
4406;DHT22;2216;53.806;11.598;2023-05-10T05:20:22;13.30;51.80
4406;DHT22;2216;53.806;11.598;2023-05-10T05:22:48;13.50;51.70
4406;DHT22;2216;53.806;11.598;2023-05-10T05:25:14;13.40;51.60
4406;DHT22;2216;53.806;11.598;2023-05-10T05:27:40;13.50;51.40
4406;DHT22;2216;53.806;11.598;2023-05-10T05:30:07;13.50;51.40
4406;DHT22;2216;53.806;11.598;2023-05-10T05:32:33;13.60;51.80
4406;DHT22;2216;53.806;11.598;2023-05-10T05:34:58;13.70;51.80
4406;DHT22;2216;53.806;11.598;2023-05-10T05:37:24;13.80;51.90
4406;DHT22;2216;53.806;11.598;2023-05-10T05:39:50;13.90;51.90
4406;DHT22;2216;53.806;11.598;2023-05-10T05:42:16;14.10;51.70
4406;DHT22;2216;53.806;11.598;2023-05-10T05:44:43;14.20;51.60
4406;DHT22;2216;53.806;11.598;2023-05-10T05:47:09;14.30;51.70
4406;DHT22;2216;53.806;11.598;2023-05-10T05:49:35;14.40;51.80
4406;DHT22;2216;53.806;11.598;2023-05-10T05:52:02;14.50;51.70
4406;DHT22;2216;53.806;11.598;2023-05-10T05:54:29;14.60;51.70
4406;DHT22;2216;53.806;11.598;2023-05-10T05:56:56;14.70;51.50
4406;DHT22;2216;53.806;11.598;2023-05-10T05:59:23;14.80;51.50
4406;DHT22;2216;53.806;11.598;2023-05-10T06:01:49;14.90;51.30
4406;DHT22;2216;53.806;11.598;2023-05-10T06:04:15;15.00;51.40
4406;DHT22;2216;53.806;11.598;2023-05-10T06:06:40;15.00;51.30
4406;DHT22;2216;53.806;11.598;2023-05-10T06:09:06;15.10;51.30
4406;DHT22;2216;53.806;11.598;2023-05-10T06:11:32;15.30;51.30
4406;DHT22;2216;53.806;11.598;2023-05-10T06:13:58;15.30;51.20
4406;DHT22;2216;53.806;11.598;2023-05-10T06:16:24;15.40;51.10
4406;DHT22;2216;53.806;11.598;2023-05-10T06:18:50;15.50;51.00
4406;DHT22;2216;53.806;11.598;2023-05-10T06:21:16;15.60;51.10
4406;DHT22;2216;53.806;11.598;2023-05-10T06:23:42;15.60;50.90
4406;DHT22;2216;53.806;11.598;2023-05-10T06:26:07;15.70;50.90
4406;DHT22;2216;53.806;11.598;2023-05-10T06:28:33;15.80;51.00
4406;DHT22;2216;53.806;11.598;2023-05-10T06:30:59;15.90;51.00
4406;DHT22;2216;53.806;11.598;2023-05-10T06:33:25;15.90;50.90
4406;DHT22;2216;53.806;11.598;2023-05-10T06:35:51;16.10;51.00
4406;DHT22;2216;53.806;11.598;2023-05-10T06:38:17;16.10;50.80
4406;DHT22;2216;53.806;11.598;2023-05-10T06:40:42;16.20;50.90
4406;DHT22;2216;53.806;11.598;2023-05-10T06:43:10;16.30;50.90
4406;DHT22;2216;53.806;11.598;2023-05-10T06:45:35;16.40;50.70
4406;DHT22;2216;53.806;11.598;2023-05-10T06:48:01;16.50;50.50
4406;DHT22;2216;53.806;11.598;2023-05-10T06:50:27;16.60;50.70
4406;DHT22;2216;53.806;11.598;2023-05-10T06:52:52;16.70;50.70
4406;DHT22;2216;53.806;11.598;2023-05-10T06:55:18;16.90;50.90
4406;DHT22;2216;53.806;11.598;2023-05-10T06:57:44;17.00;50.70
4406;DHT22;2216;53.806;11.598;2023-05-10T07:00:10;17.10;50.60
4406;DHT22;2216;53.806;11.598;2023-05-10T07:02:36;17.20;50.50
4406;DHT22;2216;53.806;11.598;2023-05-10T07:05:02;17.30;50.50
4406;DHT22;2216;53.806;11.598;2023-05-10T07:07:27;17.40;50.30
4406;DHT22;2216;53.806;11.598;2023-05-10T07:09:54;17.50;50.30
4406;DHT22;2216;53.806;11.598;2023-05-10T07:12:19;17.50;50.10
4406;DHT22;2216;53.806;11.598;2023-05-10T07:14:45;17.60;49.80
4406;DHT22;2216;53.806;11.598;2023-05-10T07:17:11;17.60;49.90
4406;DHT22;2216;53.806;11.598;2023-05-10T07:19:37;17.70;50.20
4406;DHT22;2216;53.806;11.598;2023-05-10T07:22:03;17.80;50.00
4406;DHT22;2216;53.806;11.598;2023-05-10T07:24:29;17.90;49.70
4406;DHT22;2216;53.806;11.598;2023-05-10T07:26:56;17.90;49.60
4406;DHT22;2216;53.806;11.598;2023-05-10T07:29:22;18.00;49.50
4406;DHT22;2216;53.806;11.598;2023-05-10T07:31:47;18.20;49.60
4406;DHT22;2216;53.806;11.598;2023-05-10T07:34:13;18.10;49.30
4406;DHT22;2216;53.806;11.598;2023-05-10T07:36:39;18.10;49.20
4406;DHT22;2216;53.806;11.598;2023-05-10T07:39:04;18.20;49.50
4406;DHT22;2216;53.806;11.598;2023-05-10T07:41:30;18.30;49.60
4406;DHT22;2216;53.806;11.598;2023-05-10T07:43:56;18.40;49.40
4406;DHT22;2216;53.806;11.598;2023-05-10T07:46:21;18.50;49.60
4406;DHT22;2216;53.806;11.598;2023-05-10T07:48:47;18.60;49.50
4406;DHT22;2216;53.806;11.598;2023-05-10T07:51:13;18.70;49.20
4406;DHT22;2216;53.806;11.598;2023-05-10T07:53:38;18.70;49.20
4406;DHT22;2216;53.806;11.598;2023-05-10T07:56:27;18.80;49.60
4406;DHT22;2216;53.806;11.598;2023-05-10T07:58:58;18.90;48.90
4406;DHT22;2216;53.806;11.598;2023-05-10T08:01:25;19.00;49.00
4406;DHT22;2216;53.806;11.598;2023-05-10T08:03:51;19.10;48.90
4406;DHT22;2216;53.806;11.598;2023-05-10T08:06:19;19.20;48.90
4406;DHT22;2216;53.806;11.598;2023-05-10T08:08:49;19.20;48.70
4406;DHT22;2216;53.806;11.598;2023-05-10T08:11:22;19.30;48.80
4406;DHT22;2216;53.806;11.598;2023-05-10T08:13:50;19.40;49.00
4406;DHT22;2216;53.806;11.598;2023-05-10T08:16:17;19.50;49.40
4406;DHT22;2216;53.806;11.598;2023-05-10T08:18:44;19.60;49.10
4406;DHT22;2216;53.806;11.598;2023-05-10T08:21:12;19.80;48.70
4406;DHT22;2216;53.806;11.598;2023-05-10T08:23:38;19.90;49.00
4406;DHT22;2216;53.806;11.598;2023-05-10T08:26:03;20.00;48.90
4406;DHT22;2216;53.806;11.598;2023-05-10T08:28:29;20.10;48.50
4406;DHT22;2216;53.806;11.598;2023-05-10T08:30:55;20.10;48.20
4406;DHT22;2216;53.806;11.598;2023-05-10T08:33:21;20.20;48.20
4406;DHT22;2216;53.806;11.598;2023-05-10T08:35:46;20.30;48.40
4406;DHT22;2216;53.806;11.598;2023-05-10T08:38:12;20.30;48.10
4406;DHT22;2216;53.806;11.598;2023-05-10T08:40:42;20.40;48.10
4406;DHT22;2216;53.806;11.598;2023-05-10T08:43:10;20.50;48.10
4406;DHT22;2216;53.806;11.598;2023-05-10T08:45:41;20.40;47.70
4406;DHT22;2216;53.806;11.598;2023-05-10T08:48:09;20.40;48.20
4406;DHT22;2216;53.806;11.598;2023-05-10T08:50:36;20.40;48.00
4406;DHT22;2216;53.806;11.598;2023-05-10T08:53:06;20.50;48.20
4406;DHT22;2216;53.806;11.598;2023-05-10T08:55:34;20.50;47.80
4406;DHT22;2216;53.806;11.598;2023-05-10T08:58:02;20.60;48.20
4406;DHT22;2216;53.806;11.598;2023-05-10T09:00:29;20.60;48.10
4406;DHT22;2216;53.806;11.598;2023-05-10T09:02:55;20.70;48.10
4406;DHT22;2216;53.806;11.598;2023-05-10T09:05:21;20.80;48.30
4406;DHT22;2216;53.806;11.598;2023-05-10T09:07:46;20.90;48.30
4406;DHT22;2216;53.806;11.598;2023-05-10T09:10:13;21.00;48.00
4406;DHT22;2216;53.806;11.598;2023-05-10T09:12:40;21.10;47.80
4406;DHT22;2216;53.806;11.598;2023-05-10T09:15:07;21.20;47.90
4406;DHT22;2216;53.806;11.598;2023-05-10T09:17:35;21.20;47.60
4406;DHT22;2216;53.806;11.598;2023-05-10T09:20:03;21.20;47.70
4406;DHT22;2216;53.806;11.598;2023-05-10T09:22:35;21.20;47.90
4406;DHT22;2216;53.806;11.598;2023-05-10T09:25:09;21.30;47.60
4406;DHT22;2216;53.806;11.598;2023-05-10T09:27:37;21.40;47.30
4406;DHT22;2216;53.806;11.598;2023-05-10T09:30:07;21.50;47.60
4406;DHT22;2216;53.806;11.598;2023-05-10T09:32:38;21.50;47.30
4406;DHT22;2216;53.806;11.598;2023-05-10T09:35:12;21.60;47.20
4406;DHT22;2216;53.806;11.598;2023-05-10T09:37:40;21.60;47.20
4406;DHT22;2216;53.806;11.598;2023-05-10T09:40:15;21.60;47.40
4406;DHT22;2216;53.806;11.598;2023-05-10T09:45:18;21.70;47.20
4406;DHT22;2216;53.806;11.598;2023-05-10T09:47:45;21.80;47.10
4406;DHT22;2216;53.806;11.598;2023-05-10T09:50:11;21.80;47.10
4406;DHT22;2216;53.806;11.598;2023-05-10T09:52:50;21.90;47.10
4406;DHT22;2216;53.806;11.598;2023-05-10T09:55:17;21.90;47.10
4406;DHT22;2216;53.806;11.598;2023-05-10T09:57:46;22.00;46.90
4406;DHT22;2216;53.806;11.598;2023-05-10T10:00:19;22.00;47.30
4406;DHT22;2216;53.806;11.598;2023-05-10T10:02:56;22.20;46.50
4406;DHT22;2216;53.806;11.598;2023-05-10T10:05:31;22.20;46.60
4406;DHT22;2216;53.806;11.598;2023-05-10T10:07:59;22.30;47.00
4406;DHT22;2216;53.806;11.598;2023-05-10T10:10:26;22.30;47.00
4406;DHT22;2216;53.806;11.598;2023-05-10T10:12:53;22.40;46.60
4406;DHT22;2216;53.806;11.598;2023-05-10T10:15:20;22.50;47.10
4406;DHT22;2216;53.806;11.598;2023-05-10T10:17:48;22.50;46.90
4406;DHT22;2216;53.806;11.598;2023-05-10T10:20:16;22.60;46.50
4406;DHT22;2216;53.806;11.598;2023-05-10T10:22:42;22.70;46.40
4406;DHT22;2216;53.806;11.598;2023-05-10T10:25:15;22.70;46.30
4406;DHT22;2216;53.806;11.598;2023-05-10T10:33:38;22.80;46.60
4406;DHT22;2216;53.806;11.598;2023-05-10T10:36:12;22.90;46.50
4406;DHT22;2216;53.806;11.598;2023-05-10T10:38:55;23.00;46.80
4406;DHT22;2216;53.806;11.598;2023-05-10T10:41:32;23.00;46.30
4406;DHT22;2216;53.806;11.598;2023-05-10T10:52:33;23.20;46.40
4406;DHT22;2216;53.806;11.598;2023-05-10T10:55:12;23.20;46.30
4406;DHT22;2216;53.806;11.598;2023-05-10T10:57:54;23.30;46.70
4406;DHT22;2216;53.806;11.598;2023-05-10T11:00:36;23.40;46.30
4406;DHT22;2216;53.806;11.598;2023-05-10T11:03:06;23.40;46.00
4406;DHT22;2216;53.806;11.598;2023-05-10T11:05:41;23.50;46.20
4406;DHT22;2216;53.806;11.598;2023-05-10T11:08:19;23.50;45.80
4406;DHT22;2216;53.806;11.598;2023-05-10T11:11:03;23.50;46.30
4406;DHT22;2216;53.806;11.598;2023-05-10T11:13:33;23.60;46.30
4406;DHT22;2216;53.806;11.598;2023-05-10T11:16:25;23.70;46.20
4406;DHT22;2216;53.806;11.598;2023-05-10T11:19:03;23.70;46.10
4406;DHT22;2216;53.806;11.598;2023-05-10T11:21:33;23.80;46.30
4406;DHT22;2216;53.806;11.598;2023-05-10T11:24:00;23.80;46.10
4406;DHT22;2216;53.806;11.598;2023-05-10T11:26:32;24.00;45.90
4406;DHT22;2216;53.806;11.598;2023-05-10T11:28:59;24.00;45.80
4406;DHT22;2216;53.806;11.598;2023-05-10T11:31:27;24.00;45.40
4406;DHT22;2216;53.806;11.598;2023-05-10T11:33:58;24.00;45.30
4406;DHT22;2216;53.806;11.598;2023-05-10T11:36:29;24.00;46.00
4406;DHT22;2216;53.806;11.598;2023-05-10T11:38:58;24.00;45.30
4406;DHT22;2216;53.806;11.598;2023-05-10T11:41:25;24.00;45.90
4406;DHT22;2216;53.806;11.598;2023-05-10T11:43:54;24.10;45.90
4406;DHT22;2216;53.806;11.598;2023-05-10T11:46:21;24.20;45.90
4406;DHT22;2216;53.806;11.598;2023-05-10T11:48:53;24.30;45.50
4406;DHT22;2216;53.806;11.598;2023-05-10T11:51:21;24.30;45.60
4406;DHT22;2216;53.806;11.598;2023-05-10T11:53:49;24.30;45.30
4406;DHT22;2216;53.806;11.598;2023-05-10T11:56:16;24.30;45.40
4406;DHT22;2216;53.806;11.598;2023-05-10T11:58:42;24.30;45.20
4406;DHT22;2216;53.806;11.598;2023-05-10T12:01:08;24.20;45.20
4406;DHT22;2216;53.806;11.598;2023-05-10T12:03:35;24.10;45.20
4406;DHT22;2216;53.806;11.598;2023-05-10T12:06:02;24.00;45.20
4406;DHT22;2216;53.806;11.598;2023-05-10T12:08:29;23.90;45.10
4406;DHT22;2216;53.806;11.598;2023-05-10T12:11:09;23.80;45.30
4406;DHT22;2216;53.806;11.598;2023-05-10T12:13:39;23.80;45.00
4406;DHT22;2216;53.806;11.598;2023-05-10T12:16:14;23.70;45.20
4406;DHT22;2216;53.806;11.598;2023-05-10T12:18:41;23.60;45.30
4406;DHT22;2216;53.806;11.598;2023-05-10T12:21:10;23.60;45.40
4406;DHT22;2216;53.806;11.598;2023-05-10T12:23:37;23.60;45.50
4406;DHT22;2216;53.806;11.598;2023-05-10T12:26:07;23.50;45.80
4406;DHT22;2216;53.806;11.598;2023-05-10T12:28:34;23.50;45.80
4406;DHT22;2216;53.806;11.598;2023-05-10T12:31:01;23.50;45.60
4406;DHT22;2216;53.806;11.598;2023-05-10T12:33:27;23.40;45.60
4406;DHT22;2216;53.806;11.598;2023-05-10T12:36:02;23.40;45.70
4406;DHT22;2216;53.806;11.598;2023-05-10T12:41:08;23.20;45.60
4406;DHT22;2216;53.806;11.598;2023-05-10T12:43:36;23.20;45.80
4406;DHT22;2216;53.806;11.598;2023-05-10T12:46:10;23.10;46.00
4406;DHT22;2216;53.806;11.598;2023-05-10T12:48:43;23.10;46.30
4406;DHT22;2216;53.806;11.598;2023-05-10T12:51:09;23.10;46.70
4406;DHT22;2216;53.806;11.598;2023-05-10T12:53:37;23.20;46.70
4406;DHT22;2216;53.806;11.598;2023-05-10T12:56:04;23.20;46.40
4406;DHT22;2216;53.806;11.598;2023-05-10T12:58:30;23.20;46.40
4406;DHT22;2216;53.806;11.598;2023-05-10T13:00:55;23.20;46.40
4406;DHT22;2216;53.806;11.598;2023-05-10T13:03:22;23.20;46.50
4406;DHT22;2216;53.806;11.598;2023-05-10T13:05:48;23.20;46.50
4406;DHT22;2216;53.806;11.598;2023-05-10T13:08:13;23.10;46.30
4406;DHT22;2216;53.806;11.598;2023-05-10T13:10:39;23.10;46.30
4406;DHT22;2216;53.806;11.598;2023-05-10T13:13:05;23.10;46.30
4406;DHT22;2216;53.806;11.598;2023-05-10T13:15:32;23.00;47.00
4406;DHT22;2216;53.806;11.598;2023-05-10T13:17:58;22.90;46.40
4406;DHT22;2216;53.806;11.598;2023-05-10T13:20:24;22.90;46.60
4406;DHT22;2216;53.806;11.598;2023-05-10T13:22:50;22.90;46.70
4406;DHT22;2216;53.806;11.598;2023-05-10T13:25:16;22.80;46.40
4406;DHT22;2216;53.806;11.598;2023-05-10T13:27:42;22.70;46.50
4406;DHT22;2216;53.806;11.598;2023-05-10T13:30:08;22.60;46.50
4406;DHT22;2216;53.806;11.598;2023-05-10T13:32:35;22.50;46.60
4406;DHT22;2216;53.806;11.598;2023-05-10T13:35:01;22.40;46.70
4406;DHT22;2216;53.806;11.598;2023-05-10T13:37:28;22.20;46.60
4406;DHT22;2216;53.806;11.598;2023-05-10T13:39:55;22.10;46.70
4406;DHT22;2216;53.806;11.598;2023-05-10T13:42:22;22.00;46.70
4406;DHT22;2216;53.806;11.598;2023-05-10T13:44:49;21.80;46.80
4406;DHT22;2216;53.806;11.598;2023-05-10T13:47:15;21.70;46.90
4406;DHT22;2216;53.806;11.598;2023-05-10T13:49:41;21.60;47.00
4406;DHT22;2216;53.806;11.598;2023-05-10T13:52:06;21.50;47.10
4406;DHT22;2216;53.806;11.598;2023-05-10T13:54:36;21.40;47.20
4406;DHT22;2216;53.806;11.598;2023-05-10T13:57:03;21.30;47.20
4406;DHT22;2216;53.806;11.598;2023-05-10T13:59:29;21.20;47.40
4406;DHT22;2216;53.806;11.598;2023-05-10T14:01:57;21.20;47.50
4406;DHT22;2216;53.806;11.598;2023-05-10T14:04:23;21.10;47.50
4406;DHT22;2216;53.806;11.598;2023-05-10T14:06:49;21.10;47.60
4406;DHT22;2216;53.806;11.598;2023-05-10T14:09:15;21.10;47.70
4406;DHT22;2216;53.806;11.598;2023-05-10T14:11:41;21.10;47.80
4406;DHT22;2216;53.806;11.598;2023-05-10T14:14:09;21.00;47.80
4406;DHT22;2216;53.806;11.598;2023-05-10T14:16:35;21.00;47.80
4406;DHT22;2216;53.806;11.598;2023-05-10T14:19:00;21.20;47.90
4406;DHT22;2216;53.806;11.598;2023-05-10T14:21:27;21.00;47.80
4406;DHT22;2216;53.806;11.598;2023-05-10T14:23:54;21.00;48.00
4406;DHT22;2216;53.806;11.598;2023-05-10T14:26:21;21.00;48.00
4406;DHT22;2216;53.806;11.598;2023-05-10T14:28:47;21.00;48.10
4406;DHT22;2216;53.806;11.598;2023-05-10T14:31:13;21.00;48.10
4406;DHT22;2216;53.806;11.598;2023-05-10T14:33:39;21.00;48.10
4406;DHT22;2216;53.806;11.598;2023-05-10T14:36:06;21.00;48.20
4406;DHT22;2216;53.806;11.598;2023-05-10T14:38:32;20.90;48.20
4406;DHT22;2216;53.806;11.598;2023-05-10T14:40:58;20.90;48.10
4406;DHT22;2216;53.806;11.598;2023-05-10T14:43:23;20.90;48.20
4406;DHT22;2216;53.806;11.598;2023-05-10T14:45:49;20.90;48.20
4406;DHT22;2216;53.806;11.598;2023-05-10T14:48:15;20.90;48.30
4406;DHT22;2216;53.806;11.598;2023-05-10T14:50:45;20.90;48.30
4406;DHT22;2216;53.806;11.598;2023-05-10T14:53:11;20.90;48.40
4406;DHT22;2216;53.806;11.598;2023-05-10T14:55:37;20.90;48.40
4406;DHT22;2216;53.806;11.598;2023-05-10T14:58:03;20.90;48.30
4406;DHT22;2216;53.806;11.598;2023-05-10T15:00:29;20.90;48.30
4406;DHT22;2216;53.806;11.598;2023-05-10T15:02:55;20.80;48.30
4406;DHT22;2216;53.806;11.598;2023-05-10T15:05:21;20.80;48.40
4406;DHT22;2216;53.806;11.598;2023-05-10T15:07:47;20.70;48.20
4406;DHT22;2216;53.806;11.598;2023-05-10T15:10:12;20.60;48.30
4406;DHT22;2216;53.806;11.598;2023-05-10T15:12:39;20.60;48.40
4406;DHT22;2216;53.806;11.598;2023-05-10T15:15:06;20.60;48.40
4406;DHT22;2216;53.806;11.598;2023-05-10T15:17:33;20.50;48.50
4406;DHT22;2216;53.806;11.598;2023-05-10T15:19:59;20.40;48.60
4406;DHT22;2216;53.806;11.598;2023-05-10T15:22:24;20.40;48.60
4406;DHT22;2216;53.806;11.598;2023-05-10T15:24:50;20.30;48.50
4406;DHT22;2216;53.806;11.598;2023-05-10T15:27:16;20.30;48.60
4406;DHT22;2216;53.806;11.598;2023-05-10T15:29:42;20.20;48.60
4406;DHT22;2216;53.806;11.598;2023-05-10T15:32:08;20.10;48.70
4406;DHT22;2216;53.806;11.598;2023-05-10T15:34:33;20.10;48.60
4406;DHT22;2216;53.806;11.598;2023-05-10T15:36:59;20.10;48.70
4406;DHT22;2216;53.806;11.598;2023-05-10T15:39:25;20.00;48.70
4406;DHT22;2216;53.806;11.598;2023-05-10T15:41:50;19.90;48.70
4406;DHT22;2216;53.806;11.598;2023-05-10T15:44:16;19.90;48.70
4406;DHT22;2216;53.806;11.598;2023-05-10T15:46:43;19.90;48.70
4406;DHT22;2216;53.806;11.598;2023-05-10T15:49:09;19.80;48.80
4406;DHT22;2216;53.806;11.598;2023-05-10T15:51:35;19.80;48.80
4406;DHT22;2216;53.806;11.598;2023-05-10T15:54:00;19.70;48.80
4406;DHT22;2216;53.806;11.598;2023-05-10T15:56:31;19.70;48.90
4406;DHT22;2216;53.806;11.598;2023-05-10T15:58:58;19.60;48.80
4406;DHT22;2216;53.806;11.598;2023-05-10T16:01:24;19.60;48.90
4406;DHT22;2216;53.806;11.598;2023-05-10T16:03:50;19.50;48.90
4406;DHT22;2216;53.806;11.598;2023-05-10T16:06:15;19.40;49.60
4406;DHT22;2216;53.806;11.598;2023-05-10T16:08:41;19.40;49.10
4406;DHT22;2216;53.806;11.598;2023-05-10T16:11:07;19.40;49.10
4406;DHT22;2216;53.806;11.598;2023-05-10T16:13:33;19.30;49.10
4406;DHT22;2216;53.806;11.598;2023-05-10T16:15:59;19.30;49.20